createdAt,value
2023-05-09T00:00:56.238Z,11.10
2023-05-09T00:03:24.490Z,11.17
2023-05-09T00:05:52.746Z,10.60
2023-05-09T00:08:20.915Z,10.90
2023-05-09T00:10:49.340Z,11.07
2023-05-09T00:13:17.675Z,11.10
2023-05-09T00:15:47.738Z,11.17
2023-05-09T00:18:16.098Z,10.67
2023-05-09T00:20:44.393Z,10.43
2023-05-09T00:23:12.701Z,10.93
2023-05-09T00:25:41.076Z,10.17
2023-05-09T00:28:09.366Z,10.23
2023-05-09T00:30:37.707Z,10.90
2023-05-09T00:33:07.418Z,10.07
2023-05-09T00:35:36.912Z,10.67
2023-05-09T00:38:05.176Z,10.20
2023-05-09T00:40:33.460Z,10.63
2023-05-09T00:43:01.789Z,10.87
2023-05-09T00:45:30.002Z,9.83
2023-05-09T00:47:58.505Z,9.93
2023-05-09T00:50:28.292Z,9.33
2023-05-09T00:52:56.703Z,8.90
2023-05-09T00:55:25.104Z,8.83
2023-05-09T00:57:53.581Z,9.03
2023-05-09T01:00:22.087Z,8.60
2023-05-09T01:02:52.871Z,8.97
2023-05-09T01:05:21.713Z,8.90
2023-05-09T01:07:52.309Z,9.37
2023-05-09T01:10:24.961Z,9.10
2023-05-09T01:12:56.184Z,9.03
2023-05-09T01:15:26.699Z,8.57
2023-05-09T01:17:57.356Z,9.57
2023-05-09T01:20:26.994Z,8.23
2023-05-09T01:23:00.409Z,8.77
2023-05-09T01:25:38.030Z,9.00
2023-05-09T01:28:12.191Z,9.10
2023-05-09T01:30:43.601Z,8.80
2023-05-09T01:33:12.580Z,8.07
2023-05-09T01:35:42.685Z,8.57
2023-05-09T01:38:12.028Z,8.57
2023-05-09T01:40:41.828Z,9.30
2023-05-09T01:43:11.724Z,10.40
2023-05-09T01:45:40.614Z,10.07
2023-05-09T01:48:11.429Z,11.20
2023-05-09T01:50:40.179Z,10.67
2023-05-09T01:53:08.505Z,9.77
2023-05-09T01:55:37.873Z,11.43
2023-05-09T01:58:07.213Z,10.40
2023-05-09T02:00:35.892Z,10.27
2023-05-09T02:03:05.842Z,11.13
2023-05-09T02:05:35.764Z,11.20
2023-05-09T02:08:04.229Z,11.60
2023-05-09T02:10:32.653Z,11.03
2023-05-09T02:13:01.057Z,11.23
2023-05-09T02:15:30.938Z,12.33
2023-05-09T02:17:59.263Z,11.87
2023-05-09T02:20:27.601Z,12.07
2023-05-09T02:22:57.465Z,10.87
2023-05-09T02:25:25.995Z,11.37
2023-05-09T02:27:55.563Z,10.80
2023-05-09T02:30:25.531Z,10.30
2023-05-09T02:32:55.781Z,9.43
2023-05-09T02:35:25.225Z,10.53
2023-05-09T02:37:54.232Z,9.27
2023-05-09T02:40:24.385Z,10.27
2023-05-09T02:42:52.885Z,9.53
2023-05-09T02:45:21.146Z,9.63
2023-05-09T02:47:49.638Z,9.70
2023-05-09T02:50:17.966Z,9.43
2023-05-09T02:52:46.658Z,10.47
2023-05-09T02:55:15.960Z,9.57
2023-05-09T02:57:45.947Z,9.80
2023-05-09T03:00:14.842Z,9.30
2023-05-09T03:02:43.174Z,9.27
2023-05-09T03:05:11.523Z,8.93
2023-05-09T03:07:39.932Z,10.17
2023-05-09T03:10:08.683Z,9.30
2023-05-09T03:12:38.506Z,10.03
2023-05-09T03:15:08.900Z,9.33
2023-05-09T03:17:37.619Z,9.93
2023-05-09T03:20:07.884Z,9.63
2023-05-09T03:22:36.239Z,10.03
2023-05-09T03:25:04.538Z,9.90
2023-05-09T03:27:32.833Z,9.57
2023-05-09T03:30:01.149Z,9.77
2023-05-09T03:32:30.940Z,9.27
2023-05-09T03:34:59.282Z,9.90
2023-05-09T03:37:27.537Z,9.57
2023-05-09T03:39:55.853Z,10.77
2023-05-09T03:42:24.293Z,10.37
2023-05-09T03:44:52.638Z,10.10
2023-05-09T03:47:21.469Z,10.80
2023-05-09T03:49:51.100Z,10.47
2023-05-09T03:52:19.351Z,12.07
2023-05-09T03:54:47.731Z,11.10
2023-05-09T03:57:16.148Z,12.00
2023-05-09T03:59:44.523Z,12.93
2023-05-09T04:02:12.858Z,12.63
2023-05-09T04:04:41.388Z,13.17
2023-05-09T04:07:11.198Z,11.90
2023-05-09T04:09:41.237Z,12.63
2023-05-09T04:12:09.797Z,12.33
2023-05-09T04:14:38.093Z,11.37
2023-05-09T04:17:06.826Z,12.57
2023-05-09T04:19:35.427Z,13.50
2023-05-09T04:22:04.888Z,12.90
2023-05-09T04:24:35.958Z,11.70
2023-05-09T04:27:04.631Z,12.00
2023-05-09T04:29:37.822Z,12.47
2023-05-09T04:32:08.268Z,11.03
2023-05-09T04:34:37.110Z,11.90
2023-05-09T04:37:07.428Z,10.70
2023-05-09T04:39:38.060Z,10.50
2023-05-09T04:42:07.001Z,10.33
2023-05-09T04:44:38.637Z,11.07
2023-05-09T04:47:07.158Z,10.33
2023-05-09T04:49:35.640Z,9.50
2023-05-09T04:52:04.196Z,10.00
2023-05-09T04:54:33.915Z,9.20
2023-05-09T04:57:17.228Z,8.63
2023-05-09T04:59:48.268Z,8.83
2023-05-09T05:02:17.890Z,8.67
2023-05-09T05:08:08.575Z,8.53
2023-05-09T05:10:56.390Z,8.80
2023-05-09T05:13:29.437Z,8.20
2023-05-09T05:16:03.546Z,7.97
2023-05-09T05:23:51.107Z,7.90
2023-05-09T05:26:20.097Z,7.87
2023-05-09T05:28:55.396Z,8.43
2023-05-09T05:31:26.295Z,8.40
2023-05-09T05:37:50.503Z,8.30
2023-05-09T05:46:13.332Z,8.23
2023-05-09T05:48:42.965Z,8.33
2023-05-09T06:11:35.191Z,8.40
2023-05-09T06:14:04.730Z,8.53
2023-05-09T06:16:33.410Z,7.73
2023-05-09T06:19:01.846Z,9.07
2023-05-09T06:21:30.428Z,7.80
2023-05-09T06:24:08.314Z,8.10
2023-05-09T06:26:42.162Z,7.87
2023-05-09T06:29:11.856Z,8.27
2023-05-09T06:31:41.090Z,8.13
2023-05-09T06:34:09.852Z,7.60
2023-05-09T06:36:38.473Z,8.07
2023-05-09T06:39:07.017Z,8.10
2023-05-09T06:41:35.488Z,7.60
2023-05-09T06:44:05.415Z,8.00
2023-05-09T06:46:33.911Z,7.37
2023-05-09T06:49:03.110Z,8.33
2023-05-09T06:51:33.289Z,8.37
2023-05-09T06:54:01.768Z,7.83
2023-05-09T06:56:31.377Z,8.13
2023-05-09T06:58:59.871Z,8.03
2023-05-09T07:01:30.001Z,8.50
2023-05-09T07:03:59.270Z,8.20
2023-05-09T07:06:27.799Z,9.07
2023-05-09T07:08:56.235Z,8.53
2023-05-09T07:11:24.871Z,8.67
2023-05-09T07:13:53.272Z,9.40
2023-05-09T07:16:23.162Z,9.17
2023-05-09T07:18:53.925Z,8.93
2023-05-09T07:21:22.589Z,9.67
2023-05-09T07:23:51.054Z,8.90
2023-05-09T07:26:19.729Z,8.07
2023-05-09T07:28:48.273Z,10.63
2023-05-09T07:31:16.923Z,10.50
2023-05-09T07:33:45.313Z,10.17
2023-05-09T07:36:16.916Z,10.13
2023-05-09T07:38:47.889Z,10.63
2023-05-09T07:41:17.089Z,10.07
2023-05-09T07:43:45.826Z,9.87
2023-05-09T07:46:16.528Z,9.97
2023-05-09T07:48:45.418Z,9.00
2023-05-09T07:51:16.272Z,10.53
2023-05-09T07:53:44.737Z,10.67
2023-05-09T07:56:13.518Z,9.13
2023-05-09T07:58:43.128Z,10.03
2023-05-09T08:01:11.760Z,9.47
2023-05-09T08:03:41.142Z,10.13
2023-05-09T08:06:10.344Z,9.43
2023-05-09T08:08:40.297Z,10.10
2023-05-09T08:11:08.926Z,9.57
2023-05-09T08:13:37.436Z,10.13
2023-05-09T08:18:55.510Z,10.07
2023-05-09T08:21:23.894Z,9.63
2023-05-09T08:23:54.091Z,9.43
2023-05-09T08:26:27.266Z,8.93
2023-05-09T08:28:55.775Z,9.90
2023-05-09T08:31:27.119Z,10.17
2023-05-09T08:33:55.770Z,10.00
2023-05-09T08:36:24.376Z,9.30
2023-05-09T08:38:54.216Z,9.50
2023-05-09T08:41:26.423Z,9.73
2023-05-09T08:43:55.556Z,9.47
2023-05-09T08:46:27.241Z,9.93
2023-05-09T08:48:56.963Z,10.30
2023-05-09T08:51:25.924Z,10.03
2023-05-09T08:53:56.206Z,9.30
2023-05-09T08:56:25.115Z,10.03
2023-05-09T08:58:53.746Z,10.40
2023-05-09T09:01:22.707Z,9.77
2023-05-09T09:03:51.446Z,10.43
2023-05-09T09:06:20.331Z,9.67
2023-05-09T09:08:49.718Z,10.27
2023-05-09T09:11:20.188Z,9.53
2023-05-09T09:13:49.485Z,11.10
2023-05-09T09:16:21.102Z,10.60
2023-05-09T09:18:49.896Z,10.97
2023-05-09T09:21:18.569Z,10.60
2023-05-09T09:23:49.113Z,11.27
2023-05-09T09:26:19.123Z,11.03
2023-05-09T09:28:47.817Z,10.10
2023-05-09T09:31:23.528Z,10.77
2023-05-09T09:33:52.844Z,10.87
2023-05-09T09:36:29.306Z,11.40
2023-05-09T09:39:01.695Z,11.17
2023-05-09T09:41:35.744Z,10.90
2023-05-09T09:44:09.138Z,10.43
2023-05-09T09:46:44.977Z,10.83
2023-05-09T09:49:13.790Z,10.40
2023-05-09T09:51:42.552Z,9.40
2023-05-09T09:54:11.295Z,9.57
2023-05-09T09:56:44.984Z,10.00
2023-05-09T09:59:14.043Z,10.67
2023-05-09T10:02:08.017Z,9.83
2023-05-09T10:04:37.752Z,9.10
2023-05-09T10:07:07.500Z,9.57
2023-05-09T10:09:37.945Z,8.97
2023-05-09T10:12:08.977Z,9.57
2023-05-09T10:14:38.781Z,8.83
2023-05-09T10:17:07.850Z,9.87
2023-05-09T10:19:38.237Z,10.13
2023-05-09T10:22:07.944Z,10.27
2023-05-09T10:24:37.870Z,10.43
2023-05-09T10:27:12.197Z,9.17
2023-05-09T10:29:43.664Z,9.20
2023-05-09T10:32:18.071Z,9.57
2023-05-09T10:34:49.610Z,9.23
2023-05-09T10:37:18.567Z,10.80
2023-05-09T10:39:53.132Z,10.60
2023-05-09T10:42:25.186Z,11.33
2023-05-09T10:44:54.749Z,11.03
2023-05-09T10:47:24.068Z,11.23
2023-05-09T10:49:53.113Z,10.43
2023-05-09T10:52:23.530Z,11.60
2023-05-09T10:55:06.757Z,12.60
2023-05-09T10:57:41.137Z,11.83
2023-05-09T11:00:10.586Z,11.80
2023-05-09T11:02:39.220Z,11.53
2023-05-09T11:05:18.192Z,11.93
2023-05-09T11:07:47.231Z,11.10
2023-05-09T11:10:17.957Z,12.10
2023-05-09T11:12:58.569Z,11.47
2023-05-09T11:15:28.109Z,12.43
2023-05-09T11:18:07.712Z,12.27
2023-05-09T11:20:37.123Z,12.50
2023-05-09T11:23:06.952Z,13.10
2023-05-09T11:25:36.108Z,11.87
2023-05-09T11:28:06.333Z,12.70
2023-05-09T11:30:40.691Z,12.27
2023-05-09T11:33:26.133Z,11.27
2023-05-09T11:36:29.541Z,11.37
2023-05-09T11:39:05.482Z,11.90
2023-05-09T11:41:39.578Z,13.00
2023-05-09T11:44:20.793Z,12.20
2023-05-09T11:46:59.155Z,12.13
2023-05-09T11:49:30.374Z,12.53
2023-05-09T11:52:01.966Z,12.20
2023-05-09T11:54:30.636Z,11.67
2023-05-09T11:57:01.078Z,12.40
2023-05-09T11:59:31.561Z,13.03
2023-05-09T12:02:04.999Z,12.33
2023-05-09T12:04:34.602Z,12.10
2023-05-09T12:07:03.930Z,12.97
2023-05-09T12:09:33.103Z,12.23
2023-05-09T12:12:02.218Z,11.47
2023-05-09T12:14:33.124Z,11.77
2023-05-09T12:17:01.970Z,11.87
2023-05-09T12:19:30.623Z,12.73
2023-05-09T12:21:59.300Z,13.27
2023-05-09T12:24:30.777Z,11.23
2023-05-09T12:27:00.299Z,12.40
2023-05-09T12:29:30.769Z,11.83
2023-05-09T12:32:00.763Z,12.07
2023-05-09T12:34:29.452Z,11.27
2023-05-09T12:37:00.159Z,11.43
2023-05-09T12:39:29.040Z,12.00
2023-05-09T12:42:01.872Z,12.67
2023-05-09T12:44:31.056Z,13.07
2023-05-09T12:47:03.738Z,12.80
2023-05-09T12:49:32.410Z,12.37
2023-05-09T12:52:03.761Z,12.17
2023-05-09T12:54:33.162Z,12.20
2023-05-09T12:57:03.402Z,11.30
2023-05-09T12:59:31.819Z,11.93
2023-05-09T13:02:03.067Z,12.00
2023-05-09T13:04:31.760Z,9.43
2023-05-09T13:07:00.387Z,11.30
2023-05-09T13:09:29.676Z,12.20
2023-05-09T13:11:58.176Z,11.40
2023-05-09T13:14:27.206Z,11.40
2023-05-09T13:16:56.107Z,10.63
2023-05-09T13:19:27.065Z,11.23
2023-05-09T13:21:56.913Z,11.37
2023-05-09T13:24:25.712Z,10.47
2023-05-09T13:26:54.414Z,10.33
2023-05-09T13:29:23.037Z,11.40
2023-05-09T13:31:51.766Z,11.87
2023-05-09T13:34:20.246Z,10.50
2023-05-09T13:36:50.321Z,10.10
2023-05-09T13:39:19.019Z,10.53
2023-05-09T13:41:48.699Z,11.03
2023-05-09T13:44:17.396Z,10.80
2023-05-09T13:46:46.050Z,10.93
2023-05-09T13:49:14.542Z,10.37
2023-05-09T13:51:43.116Z,10.03
2023-05-09T13:54:14.901Z,9.33
2023-05-09T13:56:43.896Z,9.30
2023-05-09T13:59:12.214Z,9.93
2023-05-09T14:01:40.789Z,9.30
2023-05-09T14:04:09.409Z,8.30
2023-05-09T14:06:37.868Z,9.93
2023-05-09T14:09:07.257Z,9.20
2023-05-09T14:11:37.535Z,8.23
2023-05-09T14:14:06.016Z,9.73
2023-05-09T14:16:34.759Z,8.47
2023-05-09T14:19:03.170Z,9.67
2023-05-09T14:21:31.592Z,8.70
2023-05-09T14:24:00.128Z,8.63
2023-05-09T14:26:28.827Z,9.07
2023-05-09T14:28:58.681Z,7.87
2023-05-09T14:31:27.281Z,9.57
2023-05-09T14:33:56.033Z,8.63
2023-05-09T14:36:24.570Z,8.47
2023-05-09T14:38:52.998Z,9.23
2023-05-09T14:41:22.383Z,8.40
2023-05-09T14:43:50.926Z,8.73
2023-05-09T14:46:21.307Z,8.17
2023-05-09T14:48:49.740Z,8.47
2023-05-09T14:51:18.412Z,8.07
2023-05-09T14:53:47.382Z,8.40
2023-05-09T14:56:15.960Z,7.00
2023-05-09T14:58:44.708Z,7.83
2023-05-09T15:01:13.367Z,6.70
2023-05-09T15:03:43.309Z,6.33
2023-05-09T15:06:13.557Z,6.80
2023-05-09T15:08:43.357Z,7.10
2023-05-09T15:11:12.034Z,7.40
2023-05-09T15:13:40.828Z,6.67
2023-05-09T15:16:09.314Z,7.23
2023-05-09T15:18:42.631Z,6.97
2023-05-09T15:21:13.080Z,6.73
2023-05-09T15:23:41.893Z,5.63
2023-05-09T15:26:12.420Z,6.57
2023-05-09T15:28:40.958Z,6.27
2023-05-09T15:31:09.463Z,7.47
2023-05-09T15:33:38.136Z,6.80
2023-05-09T15:36:07.155Z,6.60
2023-05-09T15:38:37.099Z,5.83
2023-05-09T15:41:05.965Z,6.40
2023-05-09T15:43:36.744Z,6.17
2023-05-09T15:46:07.456Z,6.30
2023-05-09T15:48:36.380Z,6.17
2023-05-09T15:51:04.819Z,6.20
2023-05-09T15:53:33.381Z,6.60
2023-05-09T15:56:03.743Z,6.33
2023-05-09T15:58:32.729Z,6.30
2023-05-09T16:01:01.061Z,6.77
2023-05-09T16:03:29.677Z,6.20
2023-05-09T16:05:58.067Z,6.40
2023-05-09T16:08:26.725Z,6.70
2023-05-09T16:10:55.179Z,5.90
2023-05-09T16:13:24.960Z,7.30
2023-05-09T16:15:54.112Z,5.87
2023-05-09T16:18:22.462Z,5.83
2023-05-09T16:20:51.534Z,6.53
2023-05-09T16:23:21.197Z,5.50
2023-05-09T16:25:51.122Z,5.37
2023-05-09T16:28:23.658Z,6.27
2023-05-09T16:30:54.089Z,5.47
2023-05-09T16:33:23.387Z,6.00
2023-05-09T16:35:51.914Z,5.83
2023-05-09T16:38:20.241Z,5.43
2023-05-09T16:40:49.823Z,4.60
2023-05-09T16:43:19.997Z,5.80
2023-05-09T16:45:48.846Z,5.47
2023-05-09T16:48:19.634Z,5.63
2023-05-09T16:50:48.165Z,5.33
2023-05-09T16:53:18.769Z,4.87
2023-05-09T16:55:47.826Z,6.30
2023-05-09T16:58:16.005Z,5.03
2023-05-09T17:00:44.242Z,5.20
2023-05-09T17:03:14.189Z,5.37
2023-05-09T17:05:43.749Z,5.27
2023-05-09T17:08:12.078Z,5.33
2023-05-09T17:10:42.097Z,5.00
2023-05-09T17:13:10.540Z,5.43
2023-05-09T17:15:39.363Z,5.33
2023-05-09T17:18:07.805Z,4.83
2023-05-09T17:20:36.021Z,5.10
2023-05-09T17:23:05.789Z,5.97
2023-05-09T17:25:34.223Z,5.43
2023-05-09T17:28:02.386Z,5.37
2023-05-09T17:30:30.633Z,5.37
2023-05-09T17:32:58.881Z,5.73
2023-05-09T17:35:27.066Z,6.10
2023-05-09T17:37:55.258Z,5.33
2023-05-09T17:40:25.093Z,5.63
2023-05-09T17:42:53.506Z,5.37
2023-05-09T17:45:21.702Z,5.40
2023-05-09T17:47:50.522Z,6.00
2023-05-09T17:50:20.220Z,5.50
2023-05-09T17:52:49.454Z,5.67
2023-05-09T17:55:17.681Z,5.17
2023-05-09T17:57:47.184Z,5.47
2023-05-09T18:00:16.313Z,5.07
2023-05-09T18:02:45.290Z,5.07
2023-05-09T18:05:13.610Z,5.73
2023-05-09T18:07:41.736Z,5.17
2023-05-09T18:10:10.442Z,5.30
2023-05-09T18:12:38.614Z,5.10
2023-05-09T18:15:10.052Z,4.70
2023-05-09T18:17:38.201Z,5.03
2023-05-09T18:20:07.322Z,5.13
2023-05-09T18:22:37.220Z,5.40
2023-05-09T18:25:05.529Z,4.63
2023-05-09T18:27:33.764Z,5.47
2023-05-09T18:30:02.269Z,5.00
2023-05-09T18:32:32.553Z,4.90
2023-05-09T18:35:00.840Z,5.80
2023-05-09T18:37:29.108Z,5.50
2023-05-09T18:39:57.355Z,5.97
2023-05-09T18:42:25.632Z,5.10
2023-05-09T18:44:53.843Z,5.17
2023-05-09T18:47:22.312Z,4.47
2023-05-09T18:49:52.737Z,4.40
2023-05-09T18:52:22.483Z,4.77
2023-05-09T18:54:50.589Z,5.40
2023-05-09T18:57:19.135Z,5.10
2023-05-09T18:59:47.362Z,5.20
2023-05-09T19:02:15.793Z,4.63
2023-05-09T19:04:45.973Z,5.13
2023-05-09T19:07:15.505Z,4.90
2023-05-09T19:09:43.994Z,5.03
2023-05-09T19:12:12.310Z,4.83
2023-05-09T19:14:40.563Z,4.83
2023-05-09T19:17:08.785Z,5.70
2023-05-09T19:19:37.384Z,5.30
2023-05-09T19:22:05.550Z,5.43
2023-05-09T19:24:35.031Z,5.17
2023-05-09T19:27:03.939Z,5.13
2023-05-09T19:29:32.078Z,5.17
2023-05-09T19:32:00.594Z,4.90
2023-05-09T19:34:30.398Z,5.53
2023-05-09T19:36:59.381Z,5.27
2023-05-09T19:39:29.613Z,5.40
2023-05-09T19:42:01.549Z,5.80
2023-05-09T19:44:33.350Z,5.37
2023-05-09T19:47:24.130Z,5.30
2023-05-09T19:49:56.953Z,5.20
2023-05-09T19:52:27.036Z,4.93
2023-05-09T19:54:57.253Z,5.03
2023-05-09T19:57:30.051Z,5.00
2023-05-09T20:00:01.636Z,5.40
2023-05-09T20:21:46.926Z,4.73
2023-05-09T20:24:24.176Z,5.73
2023-05-09T20:29:43.900Z,5.43
2023-05-09T20:57:12.702Z,5.37
2023-05-09T21:06:36.579Z,5.30
2023-05-09T21:09:05.813Z,5.20
2023-05-09T21:11:36.046Z,5.70
2023-05-09T21:14:07.307Z,5.10
2023-05-09T21:16:35.972Z,5.43
2023-05-09T21:19:05.422Z,5.40
2023-05-09T21:21:34.060Z,5.63
2023-05-09T21:24:04.857Z,5.00
2023-05-09T21:26:33.586Z,5.23
2023-05-09T21:29:03.770Z,4.37
2023-05-09T21:31:34.834Z,4.07
2023-05-09T21:34:10.005Z,3.87
2023-05-09T21:36:39.520Z,3.13
2023-05-09T21:39:11.491Z,2.87
2023-05-09T21:41:42.049Z,2.80
2023-05-09T21:44:12.573Z,2.50
2023-05-09T21:46:46.561Z,2.47
2023-05-09T21:49:17.728Z,2.50
2023-05-09T21:51:49.029Z,2.03
2023-05-09T21:54:18.753Z,2.07
2023-05-09T21:56:47.408Z,2.03
2023-05-09T21:59:18.438Z,2.53
2023-05-09T22:01:53.570Z,1.80
2023-05-09T22:04:22.198Z,1.80
2023-05-09T22:06:51.331Z,1.67
2023-05-09T22:09:21.039Z,1.40
2023-05-09T22:11:51.177Z,1.30
2023-05-09T22:14:21.795Z,1.40
2023-05-09T22:16:55.642Z,1.10
2023-05-09T22:19:24.602Z,1.10
2023-05-09T22:21:54.229Z,1.10
2023-05-09T22:24:23.793Z,1.20
2023-05-09T22:26:53.298Z,0.97
2023-05-09T22:29:26.945Z,1.07
2023-05-09T22:31:59.342Z,1.10
2023-05-09T22:34:30.417Z,1.17
2023-05-09T22:36:59.343Z,1.30
2023-05-09T22:39:28.455Z,1.20
2023-05-09T22:41:57.061Z,1.20
2023-05-09T22:44:27.921Z,1.40
2023-05-09T22:46:58.945Z,1.70
2023-05-09T22:49:28.695Z,1.50
2023-05-09T22:51:57.347Z,1.10
2023-05-09T22:54:26.947Z,1.50
2023-05-09T22:56:55.832Z,1.30
2023-05-09T22:59:25.056Z,1.30
2023-05-09T23:01:54.562Z,1.17
2023-05-09T23:04:24.869Z,1.37
2023-05-09T23:06:55.195Z,0.90
2023-05-09T23:09:24.338Z,1.37
2023-05-09T23:11:53.223Z,1.40
2023-05-09T23:14:22.970Z,1.37
2023-05-09T23:16:54.518Z,1.20
2023-05-09T23:19:24.933Z,1.13
2023-05-09T23:21:54.236Z,1.03
2023-05-09T23:24:24.159Z,1.30
2023-05-09T23:26:53.651Z,1.30
2023-05-09T23:29:22.936Z,1.43
2023-05-09T23:31:53.297Z,1.50
2023-05-09T23:34:22.154Z,1.57
2023-05-09T23:36:53.278Z,1.50
2023-05-09T23:39:21.992Z,1.50
2023-05-09T23:41:50.855Z,1.43
2023-05-09T23:44:19.529Z,1.30
2023-05-09T23:46:48.273Z,1.43
2023-05-09T23:49:16.908Z,1.60
2023-05-09T23:51:45.334Z,1.23
2023-05-09T23:54:16.794Z,1.40
2023-05-09T23:56:45.573Z,1.20
2023-05-09T23:59:14.443Z,1.30
